sensor_id;sensor_type;location;lat;lon;timestamp;pressure;altitude;pressure_sealevel;temperature;humidity
59654;BME280;66556;52.008;5.432;2023-03-15T00:01:53;101175.0;;;12.98;48.45
59654;BME280;66556;52.008;5.432;2023-03-15T00:03:29;101170.0;;;13.07;47.73
59654;BME280;66556;52.008;5.432;2023-03-15T00:05:06;101167.0;;;13.08;48.04
59654;BME280;66556;52.008;5.432;2023-03-15T00:08:20;101168.0;;;13.19;47.61
59654;BME280;66556;52.008;5.432;2023-03-15T00:09:56;101174.0;;;13.18;47.87
59654;BME280;66556;52.008;5.432;2023-03-15T00:11:33;101170.0;;;13.24;47.82
59654;BME280;66556;52.008;5.432;2023-03-15T00:13:10;101178.0;;;13.43;46.76
59654;BME280;66556;52.008;5.432;2023-03-15T00:16:24;101175.0;;;13.25;47.03
59654;BME280;66556;52.008;5.432;2023-03-15T00:18:00;101181.0;;;13.25;47.23
59654;BME280;66556;52.008;5.432;2023-03-15T00:19:37;101177.0;;;13.04;47.8
59654;BME280;66556;52.008;5.432;2023-03-15T00:22:50;101177.0;;;13.08;46.77
59654;BME280;66556;52.008;5.432;2023-03-15T00:24:26;101173.0;;;12.95;47.36
59654;BME280;66556;52.008;5.432;2023-03-15T00:26:02;101172.0;;;13.06;47.9
59654;BME280;66556;52.008;5.432;2023-03-15T00:29:15;101180.0;;;13.18;47.5
59654;BME280;66556;52.008;5.432;2023-03-15T00:31:02;101182.0;;;13.23;47.12
59654;BME280;66556;52.008;5.432;2023-03-15T00:32:39;101183.0;;;13.0;47.53
59654;BME280;66556;52.008;5.432;2023-03-15T00:34:15;101187.0;;;13.31;47.42
59654;BME280;66556;52.008;5.432;2023-03-15T00:37:27;101183.0;;;13.59;46.33
59654;BME280;66556;52.008;5.432;2023-03-15T00:39:04;101178.0;;;13.56;46.15
59654;BME280;66556;52.008;5.432;2023-03-15T00:40:40;101171.0;;;13.54;46.31
59654;BME280;66556;52.008;5.432;2023-03-15T00:43:53;101171.0;;;13.41;46.48
59654;BME280;66556;52.008;5.432;2023-03-15T00:45:29;101171.0;;;13.34;46.1
59654;BME280;66556;52.008;5.432;2023-03-15T00:47:05;101175.0;;;13.34;46.66
59654;BME280;66556;52.008;5.432;2023-03-15T00:50:17;101180.0;;;13.47;45.75
59654;BME280;66556;52.008;5.432;2023-03-15T00:51:54;101180.0;;;13.54;45.52
59654;BME280;66556;52.008;5.432;2023-03-15T00:53:30;101187.0;;;12.85;46.65
59654;BME280;66556;52.008;5.432;2023-03-15T00:55:09;101189.0;;;12.99;46.91
59654;BME280;66556;52.008;5.432;2023-03-15T00:58:23;101195.0;;;12.98;46.75
59654;BME280;66556;52.008;5.432;2023-03-15T00:59:59;101205.0;;;13.06;46.69
59654;BME280;66556;52.008;5.432;2023-03-15T01:01:36;101208.0;;;13.18;46.28
59654;BME280;66556;52.008;5.432;2023-03-15T01:04:48;101207.0;;;13.23;45.93
59654;BME280;66556;52.008;5.432;2023-03-15T01:06:26;101202.0;;;12.89;46.43
59654;BME280;66556;52.008;5.432;2023-03-15T01:08:04;101200.0;;;13.1;45.63
59654;BME280;66556;52.008;5.432;2023-03-15T01:09:39;101203.0;;;12.91;46.49
59654;BME280;66556;52.008;5.432;2023-03-15T01:12:55;101203.0;;;12.5;47.36
59654;BME280;66556;52.008;5.432;2023-03-15T01:14:31;101209.0;;;12.82;46.7
59654;BME280;66556;52.008;5.432;2023-03-15T01:16:09;101213.0;;;12.9;46.36
59654;BME280;66556;52.008;5.432;2023-03-15T01:19:22;101213.0;;;13.07;45.9
59654;BME280;66556;52.008;5.432;2023-03-15T01:20:59;101220.0;;;13.01;46.29
59654;BME280;66556;52.008;5.432;2023-03-15T01:22:35;101217.0;;;12.71;46.15
59654;BME280;66556;52.008;5.432;2023-03-15T01:25:51;101222.0;;;12.55;47.05
59654;BME280;66556;52.008;5.432;2023-03-15T01:27:28;101222.0;;;12.68;47.27
59654;BME280;66556;52.008;5.432;2023-03-15T01:29:04;101226.0;;;12.74;46.91
59654;BME280;66556;52.008;5.432;2023-03-15T01:30:47;101225.0;;;12.58;47.48
59654;BME280;66556;52.008;5.432;2023-03-15T01:34:01;101230.0;;;12.75;47.17
59654;BME280;66556;52.008;5.432;2023-03-15T01:35:37;101233.0;;;12.68;47.8
59654;BME280;66556;52.008;5.432;2023-03-15T01:37:13;101237.0;;;12.85;47.13
59654;BME280;66556;52.008;5.432;2023-03-15T01:40:26;101235.0;;;12.7;47.65
59654;BME280;66556;52.008;5.432;2023-03-15T01:42:02;101247.0;;;12.83;47.64
59654;BME280;66556;52.008;5.432;2023-03-15T01:43:38;101245.0;;;12.8;47.91
59654;BME280;66556;52.008;5.432;2023-03-15T01:45:52;101249.0;;;12.87;47.86
59654;BME280;66556;52.008;5.432;2023-03-15T01:47:31;101255.0;;;12.92;47.11
59654;BME280;66556;52.008;5.432;2023-03-15T01:50:49;101255.0;;;13.03;46.76
59654;BME280;66556;52.008;5.432;2023-03-15T01:52:29;101260.0;;;13.09;46.7
59654;BME280;66556;52.008;5.432;2023-03-15T01:54:16;101260.0;;;12.88;47.56
59654;BME280;66556;52.008;5.432;2023-03-15T01:55:53;101266.0;;;13.03;46.95
59654;BME280;66556;52.008;5.432;2023-03-15T01:59:15;101266.0;;;13.24;46.65
59654;BME280;66556;52.008;5.432;2023-03-15T02:00:55;101264.0;;;13.13;46.58
59654;BME280;66556;52.008;5.432;2023-03-15T02:02:31;101265.0;;;13.13;46.78
59654;BME280;66556;52.008;5.432;2023-03-15T02:04:09;101259.0;;;13.34;46.37
59654;BME280;66556;52.008;5.432;2023-03-15T02:07:32;101261.0;;;13.23;46.52
59654;BME280;66556;52.008;5.432;2023-03-15T02:09:09;101260.0;;;13.39;46.17
59654;BME280;66556;52.008;5.432;2023-03-15T02:10:48;101263.0;;;13.36;46.1
59654;BME280;66556;52.008;5.432;2023-03-15T02:12:28;101269.0;;;13.32;46.4
59654;BME280;66556;52.008;5.432;2023-03-15T02:15:45;101268.0;;;13.29;46.73
59654;BME280;66556;52.008;5.432;2023-03-15T02:17:27;101268.0;;;13.33;46.42
59654;BME280;66556;52.008;5.432;2023-03-15T02:19:17;101268.0;;;13.52;46.14
59654;BME280;66556;52.008;5.432;2023-03-15T02:21:06;101274.0;;;13.34;46.34
59654;BME280;66556;52.008;5.432;2023-03-15T02:24:36;101274.0;;;13.41;45.76
59654;BME280;66556;52.008;5.432;2023-03-15T02:26:20;101275.0;;;13.16;46.16
59654;BME280;66556;52.008;5.432;2023-03-15T02:28:01;101280.0;;;13.12;46.37
59654;BME280;66556;52.008;5.432;2023-03-15T02:29:40;101281.0;;;12.93;46.83
59654;BME280;66556;52.008;5.432;2023-03-15T02:31:17;101284.0;;;13.07;46.82
59654;BME280;66556;52.008;5.432;2023-03-15T02:34:31;101283.0;;;12.81;47.67
59654;BME280;66556;52.008;5.432;2023-03-15T02:36:13;101282.0;;;13.14;46.16
59654;BME280;66556;52.008;5.432;2023-03-15T02:37:52;101282.0;;;12.97;46.47
59654;BME280;66556;52.008;5.432;2023-03-15T02:41:05;101287.0;;;13.14;46.19
59654;BME280;66556;52.008;5.432;2023-03-15T02:42:41;101293.0;;;12.91;46.73
59654;BME280;66556;52.008;5.432;2023-03-15T02:44:20;101301.0;;;12.77;47.09
59654;BME280;66556;52.008;5.432;2023-03-15T02:45:59;101302.0;;;12.75;47.08
59654;BME280;66556;52.008;5.432;2023-03-15T02:49:16;101306.0;;;12.73;46.96
59654;BME280;66556;52.008;5.432;2023-03-15T02:50:53;101305.0;;;12.93;45.85
59654;BME280;66556;52.008;5.432;2023-03-15T02:52:29;101312.0;;;13.3;45.35
59654;BME280;66556;52.008;5.432;2023-03-15T02:55:41;101313.0;;;12.89;46.52
59654;BME280;66556;52.008;5.432;2023-03-15T02:57:18;101315.0;;;12.92;46.45
59654;BME280;66556;52.008;5.432;2023-03-15T02:58:55;101315.0;;;12.64;46.79
59654;BME280;66556;52.008;5.432;2023-03-15T03:00:31;101325.0;;;12.82;46.68
59654;BME280;66556;52.008;5.432;2023-03-15T03:03:45;101330.0;;;12.82;46.83
59654;BME280;66556;52.008;5.432;2023-03-15T03:05:22;101334.0;;;12.79;46.62
59654;BME280;66556;52.008;5.432;2023-03-15T03:06:58;101334.0;;;12.81;46.64
59654;BME280;66556;52.008;5.432;2023-03-15T03:10:13;101338.0;;;12.76;46.1
59654;BME280;66556;52.008;5.432;2023-03-15T03:11:52;101341.0;;;12.54;46.96
59654;BME280;66556;52.008;5.432;2023-03-15T03:13:28;101348.0;;;12.62;47.16
59654;BME280;66556;52.008;5.432;2023-03-15T03:16:42;101349.0;;;12.65;46.65
59654;BME280;66556;52.008;5.432;2023-03-15T03:18:18;101353.0;;;12.7;46.76
59654;BME280;66556;52.008;5.432;2023-03-15T03:19:54;101355.0;;;12.73;46.13
59654;BME280;66556;52.008;5.432;2023-03-15T03:21:31;101362.0;;;12.41;47.23
59654;BME280;66556;52.008;5.432;2023-03-15T03:24:44;101362.0;;;12.24;47.8
59654;BME280;66556;52.008;5.432;2023-03-15T03:26:20;101360.0;;;12.64;46.18
59654;BME280;66556;52.008;5.432;2023-03-15T03:27:57;101368.0;;;12.44;46.87
59654;BME280;66556;52.008;5.432;2023-03-15T03:31:17;101370.0;;;12.44;46.85
59654;BME280;66556;52.008;5.432;2023-03-15T03:32:53;101372.0;;;12.25;47.57
59654;BME280;66556;52.008;5.432;2023-03-15T03:34:29;101374.0;;;12.25;46.9
59654;BME280;66556;52.008;5.432;2023-03-15T03:36:06;101380.0;;;12.44;46.57
59654;BME280;66556;52.008;5.432;2023-03-15T03:39:19;101382.0;;;12.41;46.84
59654;BME280;66556;52.008;5.432;2023-03-15T03:40:55;101388.0;;;12.4;47.26
59654;BME280;66556;52.008;5.432;2023-03-15T03:42:31;101393.0;;;12.23;47.18
59654;BME280;66556;52.008;5.432;2023-03-15T03:45:43;101395.0;;;12.34;46.93
59654;BME280;66556;52.008;5.432;2023-03-15T03:47:19;101400.0;;;12.32;46.24
59654;BME280;66556;52.008;5.432;2023-03-15T03:48:55;101401.0;;;12.08;46.93
59654;BME280;66556;52.008;5.432;2023-03-15T03:52:08;101409.0;;;12.42;46.05
59654;BME280;66556;52.008;5.432;2023-03-15T03:53:44;101413.0;;;12.25;46.27
59654;BME280;66556;52.008;5.432;2023-03-15T03:55:20;101414.0;;;12.23;46.6
59654;BME280;66556;52.008;5.432;2023-03-15T03:58:32;101423.0;;;12.25;46.24
59654;BME280;66556;52.008;5.432;2023-03-15T04:00:11;101420.0;;;12.26;45.96
59654;BME280;66556;52.008;5.432;2023-03-15T04:01:48;101424.0;;;12.18;46.06
59654;BME280;66556;52.008;5.432;2023-03-15T04:03:25;101420.0;;;11.94;46.87
59654;BME280;66556;52.008;5.432;2023-03-15T04:06:37;101418.0;;;11.9;47.07
59654;BME280;66556;52.008;5.432;2023-03-15T04:08:14;101423.0;;;12.0;46.48
59654;BME280;66556;52.008;5.432;2023-03-15T04:09:50;101425.0;;;11.89;46.73
59654;BME280;66556;52.008;5.432;2023-03-15T04:13:02;101428.0;;;11.93;46.84
59654;BME280;66556;52.008;5.432;2023-03-15T04:14:38;101430.0;;;12.17;46.46
59654;BME280;66556;52.008;5.432;2023-03-15T04:16:14;101435.0;;;12.32;45.52
59654;BME280;66556;52.008;5.432;2023-03-15T04:19:28;101437.0;;;12.47;45.04
59654;BME280;66556;52.008;5.432;2023-03-15T04:21:04;101442.0;;;12.09;45.12
59654;BME280;66556;52.008;5.432;2023-03-15T04:22:41;101444.0;;;12.0;44.63
59654;BME280;66556;52.008;5.432;2023-03-15T04:24:17;101447.0;;;11.63;45.11
59654;BME280;66556;52.008;5.432;2023-03-15T04:27:29;101449.0;;;11.38;45.19
59654;BME280;66556;52.008;5.432;2023-03-15T04:29:08;101450.0;;;11.41;45.06
59654;BME280;66556;52.008;5.432;2023-03-15T04:30:46;101459.0;;;11.18;45.28
59654;BME280;66556;52.008;5.432;2023-03-15T04:34:00;101464.0;;;11.04;45.46
59654;BME280;66556;52.008;5.432;2023-03-15T04:35:36;101466.0;;;11.0;45.67
59654;BME280;66556;52.008;5.432;2023-03-15T04:37:13;101462.0;;;11.37;44.54
59654;BME280;66556;52.008;5.432;2023-03-15T04:40:25;101463.0;;;11.63;44.36
59654;BME280;66556;52.008;5.432;2023-03-15T04:42:03;101473.0;;;10.98;45.11
59654;BME280;66556;52.008;5.432;2023-03-15T04:43:40;101476.0;;;10.76;45.96
59654;BME280;66556;52.008;5.432;2023-03-15T04:45:17;101477.0;;;10.66;46.84
59654;BME280;66556;52.008;5.432;2023-03-15T04:48:31;101480.0;;;10.86;45.92
59654;BME280;66556;52.008;5.432;2023-03-15T04:50:08;101482.0;;;11.18;45.45
59654;BME280;66556;52.008;5.432;2023-03-15T04:51:44;101484.0;;;11.64;44.27
59654;BME280;66556;52.008;5.432;2023-03-15T04:54:56;101493.0;;;11.07;45.16
59654;BME280;66556;52.008;5.432;2023-03-15T04:56:32;101490.0;;;11.48;44.71
59654;BME280;66556;52.008;5.432;2023-03-15T04:58:08;101495.0;;;11.23;44.53
59654;BME280;66556;52.008;5.432;2023-03-15T04:59:45;101495.0;;;11.02;45.2
59654;BME280;66556;52.008;5.432;2023-03-15T05:03:03;101503.0;;;10.9;45.88
59654;BME280;66556;52.008;5.432;2023-03-15T05:04:39;101500.0;;;10.92;45.47
59654;BME280;66556;52.008;5.432;2023-03-15T05:06:15;101505.0;;;10.81;45.71
59654;BME280;66556;52.008;5.432;2023-03-15T05:09:28;101512.0;;;10.65;46.52
59654;BME280;66556;52.008;5.432;2023-03-15T05:11:05;101510.0;;;10.69;45.99
59654;BME280;66556;52.008;5.432;2023-03-15T05:12:41;101508.0;;;10.71;45.91
59654;BME280;66556;52.008;5.432;2023-03-15T05:15:53;101510.0;;;10.78;45.62
59654;BME280;66556;52.008;5.432;2023-03-15T05:17:29;101512.0;;;11.0;44.85
59654;BME280;66556;52.008;5.432;2023-03-15T05:19:05;101509.0;;;10.98;44.67
59654;BME280;66556;52.008;5.432;2023-03-15T05:20:41;101515.0;;;10.82;44.78
59654;BME280;66556;52.008;5.432;2023-03-15T05:23:53;101523.0;;;10.83;44.92
59654;BME280;66556;52.008;5.432;2023-03-15T05:25:30;101528.0;;;11.04;44.5
59654;BME280;66556;52.008;5.432;2023-03-15T05:27:06;101524.0;;;10.79;44.76
59654;BME280;66556;52.008;5.432;2023-03-15T05:30:18;101526.0;;;10.7;44.87
59654;BME280;66556;52.008;5.432;2023-03-15T05:31:55;101527.0;;;10.9;44.91
59654;BME280;66556;52.008;5.432;2023-03-15T05:33:30;101536.0;;;10.73;44.53
59654;BME280;66556;52.008;5.432;2023-03-15T05:36:44;101537.0;;;10.81;44.7
59654;BME280;66556;52.008;5.432;2023-03-15T05:38:20;101535.0;;;10.77;44.87
59654;BME280;66556;52.008;5.432;2023-03-15T05:39:56;101532.0;;;10.78;44.65
59654;BME280;66556;52.008;5.432;2023-03-15T05:43:08;101537.0;;;10.55;45.14
59654;BME280;66556;52.008;5.432;2023-03-15T05:44:46;101541.0;;;10.4;45.39
59654;BME280;66556;52.008;5.432;2023-03-15T05:46:22;101536.0;;;10.47;45.18
59654;BME280;66556;52.008;5.432;2023-03-15T05:47:58;101538.0;;;10.48;45.29
59654;BME280;66556;52.008;5.432;2023-03-15T05:51:11;101548.0;;;10.56;45.33
59654;BME280;66556;52.008;5.432;2023-03-15T05:52:49;101551.0;;;10.55;45.87
59654;BME280;66556;52.008;5.432;2023-03-15T05:54:25;101559.0;;;10.53;45.97
59654;BME280;66556;52.008;5.432;2023-03-15T05:57:37;101561.0;;;10.5;46.09
59654;BME280;66556;52.008;5.432;2023-03-15T05:59:13;101565.0;;;10.31;46.81
59654;BME280;66556;52.008;5.432;2023-03-15T06:00:49;101566.0;;;10.23;47.68
59654;BME280;66556;52.008;5.432;2023-03-15T06:04:02;101572.0;;;10.42;47.21
59654;BME280;66556;52.008;5.432;2023-03-15T06:05:38;101576.0;;;10.73;46.45
59654;BME280;66556;52.008;5.432;2023-03-15T06:07:14;101582.0;;;10.9;46.23
59654;BME280;66556;52.008;5.432;2023-03-15T06:08:50;101585.0;;;10.99;45.07
59654;BME280;66556;52.008;5.432;2023-03-15T06:12:03;101593.0;;;10.9;45.61
59654;BME280;66556;52.008;5.432;2023-03-15T06:13:39;101594.0;;;10.63;46.71
59654;BME280;66556;52.008;5.432;2023-03-15T06:15:17;101601.0;;;10.73;46.02
59654;BME280;66556;52.008;5.432;2023-03-15T06:18:30;101605.0;;;10.79;46.0
59654;BME280;66556;52.008;5.432;2023-03-15T06:20:06;101613.0;;;10.58;46.69
59654;BME280;66556;52.008;5.432;2023-03-15T06:21:43;101612.0;;;10.43;47.45
59654;BME280;66556;52.008;5.432;2023-03-15T06:24:55;101618.0;;;10.93;46.76
59654;BME280;66556;52.008;5.432;2023-03-15T06:26:31;101621.0;;;10.76;46.9
59654;BME280;66556;52.008;5.432;2023-03-15T06:28:07;101626.0;;;10.6;47.32
59654;BME280;66556;52.008;5.432;2023-03-15T06:29:43;101632.0;;;10.79;47.98
59654;BME280;66556;52.008;5.432;2023-03-15T06:32:56;101636.0;;;11.0;47.82
59654;BME280;66556;52.008;5.432;2023-03-15T06:34:32;101643.0;;;10.79;48.49
59654;BME280;66556;52.008;5.432;2023-03-15T06:36:09;101644.0;;;10.96;48.65
59654;BME280;66556;52.008;5.432;2023-03-15T06:39:23;101646.0;;;11.05;46.99
59654;BME280;66556;52.008;5.432;2023-03-15T06:40:59;101651.0;;;11.41;48.27
59654;BME280;66556;52.008;5.432;2023-03-15T06:42:35;101660.0;;;12.09;46.82
59654;BME280;66556;52.008;5.432;2023-03-15T06:45:49;101652.0;;;12.0;47.91
59654;BME280;66556;52.008;5.432;2023-03-15T06:47:26;101658.0;;;11.33;48.25
59654;BME280;66556;52.008;5.432;2023-03-15T06:49:02;101661.0;;;11.8;48.08
59654;BME280;66556;52.008;5.432;2023-03-15T06:50:38;101659.0;;;11.73;48.21
59654;BME280;66556;52.008;5.432;2023-03-15T06:53:52;101663.0;;;12.0;47.83
59654;BME280;66556;52.008;5.432;2023-03-15T06:55:28;101669.0;;;12.11;49.87
59654;BME280;66556;52.008;5.432;2023-03-15T06:57:06;101671.0;;;12.28;49.01
59654;BME280;66556;52.008;5.432;2023-03-15T07:00:18;101674.0;;;12.38;47.64
59654;BME280;66556;52.008;5.432;2023-03-15T07:01:55;101681.0;;;12.3;49.6
59654;BME280;66556;52.008;5.432;2023-03-15T07:03:31;101685.0;;;12.5;49.04
59654;BME280;66556;52.008;5.432;2023-03-15T07:06:44;101683.0;;;12.65;47.37
59654;BME280;66556;52.008;5.432;2023-03-15T07:08:22;101688.0;;;12.87;48.17
59654;BME280;66556;52.008;5.432;2023-03-15T07:09:59;101696.0;;;12.7;47.42
59654;BME280;66556;52.008;5.432;2023-03-15T07:11:36;101697.0;;;12.93;48.47
59654;BME280;66556;52.008;5.432;2023-03-15T07:14:48;101705.0;;;13.47;50.44
59654;BME280;66556;52.008;5.432;2023-03-15T07:16:24;101705.0;;;13.5;49.68
59654;BME280;66556;52.008;5.432;2023-03-15T07:18:00;101710.0;;;13.99;48.37
59654;BME280;66556;52.008;5.432;2023-03-15T07:21:13;101715.0;;;13.76;47.24
59654;BME280;66556;52.008;5.432;2023-03-15T07:22:49;101716.0;;;14.11;49.57
59654;BME280;66556;52.008;5.432;2023-03-15T07:24:25;101722.0;;;14.62;48.52
59654;BME280;66556;52.008;5.432;2023-03-15T07:27:38;101724.0;;;14.57;47.4
59654;BME280;66556;52.008;5.432;2023-03-15T07:29:14;101725.0;;;14.81;45.78
59654;BME280;66556;52.008;5.432;2023-03-15T07:30:52;101728.0;;;14.22;44.81
59654;BME280;66556;52.008;5.432;2023-03-15T07:32:28;101728.0;;;14.4;43.85
59654;BME280;66556;52.008;5.432;2023-03-15T07:35:40;101722.0;;;15.19;42.72
59654;BME280;66556;52.008;5.432;2023-03-15T07:37:16;101727.0;;;15.81;42.97
59654;BME280;66556;52.008;5.432;2023-03-15T07:38:52;101730.0;;;15.06;44.95
59654;BME280;66556;52.008;5.432;2023-03-15T07:42:04;101733.0;;;15.07;44.97
59654;BME280;66556;52.008;5.432;2023-03-15T07:43:40;101738.0;;;15.1;44.71
59654;BME280;66556;52.008;5.432;2023-03-15T07:45:16;101744.0;;;15.48;42.45
59654;BME280;66556;52.008;5.432;2023-03-15T07:48:28;101747.0;;;15.78;41.63
59654;BME280;66556;52.008;5.432;2023-03-15T07:50:07;101746.0;;;15.25;41.44
59654;BME280;66556;52.008;5.432;2023-03-15T07:51:43;101749.0;;;15.59;39.71
59654;BME280;66556;52.008;5.432;2023-03-15T07:54:56;101753.0;;;15.57;42.98
59654;BME280;66556;52.008;5.432;2023-03-15T07:56:32;101755.0;;;15.49;44.79
59654;BME280;66556;52.008;5.432;2023-03-15T07:58:08;101759.0;;;15.68;43.84
59654;BME280;66556;52.008;5.432;2023-03-15T07:59:44;101765.0;;;15.6;44.22
59654;BME280;66556;52.008;5.432;2023-03-15T08:02:57;101770.0;;;15.59;43.26
59654;BME280;66556;52.008;5.432;2023-03-15T08:04:34;101769.0;;;15.88;42.77
59654;BME280;66556;52.008;5.432;2023-03-15T08:06:10;101772.0;;;15.88;43.6
59654;BME280;66556;52.008;5.432;2023-03-15T08:09:23;101781.0;;;15.78;44.61
59654;BME280;66556;52.008;5.432;2023-03-15T08:10:59;101782.0;;;15.78;44.57
59654;BME280;66556;52.008;5.432;2023-03-15T08:12:35;101787.0;;;15.8;44.17
59654;BME280;66556;52.008;5.432;2023-03-15T08:15:47;101790.0;;;15.97;42.72
59654;BME280;66556;52.008;5.432;2023-03-15T08:17:23;101793.0;;;16.25;41.99
59654;BME280;66556;52.008;5.432;2023-03-15T08:19:00;101795.0;;;16.47;41.85
59654;BME280;66556;52.008;5.432;2023-03-15T08:20:36;101793.0;;;16.36;41.94
59654;BME280;66556;52.008;5.432;2023-03-15T08:23:48;101794.0;;;16.2;40.74
59654;BME280;66556;52.008;5.432;2023-03-15T08:25:24;101795.0;;;16.59;40.81
59654;BME280;66556;52.008;5.432;2023-03-15T08:27:02;101801.0;;;16.43;40.58
59654;BME280;66556;52.008;5.432;2023-03-15T08:30:15;101800.0;;;16.41;41.16
59654;BME280;66556;52.008;5.432;2023-03-15T08:31:53;101806.0;;;16.41;40.85
59654;BME280;66556;52.008;5.432;2023-03-15T08:33:29;101809.0;;;16.52;39.68
59654;BME280;66556;52.008;5.432;2023-03-15T08:36:45;101801.0;;;16.0;39.81
59654;BME280;66556;52.008;5.432;2023-03-15T08:38:21;101808.0;;;16.3;38.92
59654;BME280;66556;52.008;5.432;2023-03-15T08:39:57;101811.0;;;16.3;37.36
59654;BME280;66556;52.008;5.432;2023-03-15T08:41:33;101815.0;;;16.68;36.1
59654;BME280;66556;52.008;5.432;2023-03-15T08:44:46;101819.0;;;16.75;35.99
59654;BME280;66556;52.008;5.432;2023-03-15T08:46:22;101821.0;;;16.43;35.82
59654;BME280;66556;52.008;5.432;2023-03-15T08:47:59;101828.0;;;16.7;37.79
59654;BME280;66556;52.008;5.432;2023-03-15T08:51:11;101826.0;;;16.22;37.24
59654;BME280;66556;52.008;5.432;2023-03-15T08:52:47;101830.0;;;16.48;36.04
59654;BME280;66556;52.008;5.432;2023-03-15T08:54:23;101833.0;;;16.45;39.69
59654;BME280;66556;52.008;5.432;2023-03-15T08:57:37;101836.0;;;16.4;37.78
59654;BME280;66556;52.008;5.432;2023-03-15T08:59:13;101836.0;;;16.32;39.97
59654;BME280;66556;52.008;5.432;2023-03-15T09:00:49;101837.0;;;16.52;38.21
59654;BME280;66556;52.008;5.432;2023-03-15T09:02:26;101841.0;;;16.18;37.18
59654;BME280;66556;52.008;5.432;2023-03-15T09:05:39;101838.0;;;16.5;35.6
59654;BME280;66556;52.008;5.432;2023-03-15T09:07:15;101839.0;;;16.31;37.99
59654;BME280;66556;52.008;5.432;2023-03-15T09:08:51;101837.0;;;16.62;36.86
59654;BME280;66556;52.008;5.432;2023-03-15T09:12:04;101839.0;;;17.43;37.46
59654;BME280;66556;52.008;5.432;2023-03-15T09:13:40;101838.0;;;17.41;37.22
59654;BME280;66556;52.008;5.432;2023-03-15T09:15:16;101844.0;;;17.41;37.92
59654;BME280;66556;52.008;5.432;2023-03-15T09:18:29;101845.0;;;17.79;37.08
59654;BME280;66556;52.008;5.432;2023-03-15T09:20:08;101843.0;;;17.8;36.53
59654;BME280;66556;52.008;5.432;2023-03-15T09:21:44;101844.0;;;18.11;35.39
59654;BME280;66556;52.008;5.432;2023-03-15T09:23:21;101844.0;;;18.53;35.57
59654;BME280;66556;52.008;5.432;2023-03-15T09:26:33;101842.0;;;18.84;33.58
59654;BME280;66556;52.008;5.432;2023-03-15T09:28:10;101840.0;;;18.91;33.33
59654;BME280;66556;52.008;5.432;2023-03-15T09:29:46;101841.0;;;19.16;33.49
59654;BME280;66556;52.008;5.432;2023-03-15T09:32:58;101842.0;;;19.63;34.28
59654;BME280;66556;52.008;5.432;2023-03-15T09:34:35;101837.0;;;19.77;32.96
59654;BME280;66556;52.008;5.432;2023-03-15T09:36:11;101845.0;;;19.3;31.58
59654;BME280;66556;52.008;5.432;2023-03-15T09:39:25;101844.0;;;20.09;30.41
59654;BME280;66556;52.008;5.432;2023-03-15T09:41:01;101845.0;;;20.52;32.11
59654;BME280;66556;52.008;5.432;2023-03-15T09:42:45;101848.0;;;20.96;31.08
59654;BME280;66556;52.008;5.432;2023-03-15T09:44:37;101851.0;;;20.93;31.04
59654;BME280;66556;52.008;5.432;2023-03-15T09:48:07;101857.0;;;20.79;31.2
59654;BME280;66556;52.008;5.432;2023-03-15T09:49:49;101853.0;;;20.3;29.56
59654;BME280;66556;52.008;5.432;2023-03-15T09:51:35;101853.0;;;20.23;32.46
59654;BME280;66556;52.008;5.432;2023-03-15T09:53:16;101850.0;;;20.82;31.93
59654;BME280;66556;52.008;5.432;2023-03-15T09:54:57;101851.0;;;20.99;31.57
59654;BME280;66556;52.008;5.432;2023-03-15T09:58:18;101852.0;;;21.0;28.18
59654;BME280;66556;52.008;5.432;2023-03-15T09:59:57;101855.0;;;20.23;31.13
59654;BME280;66556;52.008;5.432;2023-03-15T10:01:36;101850.0;;;20.09;31.28
59654;BME280;66556;52.008;5.432;2023-03-15T10:03:17;101853.0;;;20.18;32.06
59654;BME280;66556;52.008;5.432;2023-03-15T10:06:45;101850.0;;;21.27;31.59
59654;BME280;66556;52.008;5.432;2023-03-15T10:08:25;101850.0;;;21.33;31.13
59654;BME280;66556;52.008;5.432;2023-03-15T10:10:01;101853.0;;;21.2;28.25
59654;BME280;66556;52.008;5.432;2023-03-15T10:11:46;101855.0;;;21.52;29.34
59654;BME280;66556;52.008;5.432;2023-03-15T10:15:25;101853.0;;;21.47;27.48
59654;BME280;66556;52.008;5.432;2023-03-15T10:17:16;101849.0;;;22.14;29.72
59654;BME280;66556;52.008;5.432;2023-03-15T10:19:05;101855.0;;;21.85;28.0
59654;BME280;66556;52.008;5.432;2023-03-15T10:20:47;101851.0;;;20.97;27.49
59654;BME280;66556;52.008;5.432;2023-03-15T10:22:29;101859.0;;;21.88;29.84
59654;BME280;66556;52.008;5.432;2023-03-15T10:24:16;101849.0;;;21.96;27.16
59654;BME280;66556;52.008;5.432;2023-03-15T10:27:33;101852.0;;;22.23;27.84
59654;BME280;66556;52.008;5.432;2023-03-15T10:29:13;101855.0;;;22.24;24.99
59654;BME280;66556;52.008;5.432;2023-03-15T10:30:56;101852.0;;;22.07;25.33
59654;BME280;66556;52.008;5.432;2023-03-15T10:32:37;101861.0;;;21.6;25.87
59654;BME280;66556;52.008;5.432;2023-03-15T10:35:53;101860.0;;;20.76;28.27
59654;BME280;66556;52.008;5.432;2023-03-15T10:37:30;101859.0;;;21.45;26.83
59654;BME280;66556;52.008;5.432;2023-03-15T10:39:08;101857.0;;;20.22;26.23
59654;BME280;66556;52.008;5.432;2023-03-15T10:40:46;101864.0;;;20.51;29.59
59654;BME280;66556;52.008;5.432;2023-03-15T10:44:11;101866.0;;;20.05;29.65
59654;BME280;66556;52.008;5.432;2023-03-15T10:46:00;101871.0;;;20.27;26.72
59654;BME280;66556;52.008;5.432;2023-03-15T10:47:40;101869.0;;;21.28;28.88
59654;BME280;66556;52.008;5.432;2023-03-15T10:49:17;101873.0;;;20.57;27.95
59654;BME280;66556;52.008;5.432;2023-03-15T10:52:33;101874.0;;;19.72;28.09
59654;BME280;66556;52.008;5.432;2023-03-15T10:54:13;101878.0;;;19.77;28.36
59654;BME280;66556;52.008;5.432;2023-03-15T10:55:58;101888.0;;;19.3;27.7
59654;BME280;66556;52.008;5.432;2023-03-15T10:57:39;101881.0;;;20.43;28.32
59654;BME280;66556;52.008;5.432;2023-03-15T11:01:00;101885.0;;;21.42;28.26
59654;BME280;66556;52.008;5.432;2023-03-15T11:02:48;101893.0;;;21.41;23.48
59654;BME280;66556;52.008;5.432;2023-03-15T11:04:25;101891.0;;;21.2;26.05
59654;BME280;66556;52.008;5.432;2023-03-15T11:06:03;101889.0;;;21.43;23.62